Les résultats de cette page
ont été mis à jour.

11/11/2023

Trail Poursuite du Faron

Mont Faron(83) - Trail

Vous pouvez entrer votre N° de dossard, ou votre nom pour atteindre directement votre classement. Si vous voulez avoir une vue détaillée de votre seule performance cliquez sur votre ligne , vous aurez une lecture plus aisée et complète (temps intermédiaires , etc..) Pour afficher que les classements de votre catégorie utilisez le libellé abrégé de celle-ci "SeM" par exemple pour les séniors Masculins. Pour obtenir les Podiums scratch entrez "SCR" , Pour les podiums catégories "CATEG"
Clt. Doss. Nom Class/Sx Class/Cat Temps Podiums Club
1 1179 LUIGGI Antoine M(1.) SeM(1.) 00:49:50 SCR Toulon
2 1017 LABAT Thierry M(2.) M1M(1.) 00:52:06 SCR Ultra Trail Adventurer
3 1077 BOERI Antonin M(3.) SeM(2.) 00:54:15 SCR La Ciotat
4 1058 KLAVER Vincent M(4.) SeM(3.) 00:55:06 CAT Toulon Var Triathlon
5 1176 JOHNSEN Marte Lien F(1.) SeF(1.) 00:57:05 SCR Antibes
6 1113 MINOTTE Sebastien M(5.) SeM(4.) 00:57:41 Hyères
7 1088 TROTTIER Marc M(6.) SeM(5.) 00:57:50 Toulon
8 1125 RONDA Tom M(7.) SeM(6.) 00:57:50 Le Val
9 1135 TRON Guillaume M(8.) SeM(7.) 00:58:29 La Foulée Des Îles
10 1081 CARAMELLO Baptiste M(9.) SeM(8.) 00:59:11 Asnières Sur Seine
11 1185 GENESTA Enzo M(10.) SeM(9.) 00:59:11 La Garde
12 1100 LEON Manuel M(11.) SeM(10.) 00:59:34 Toulon
13 1146 MARTIN Johan M(12.) M0M(1.) 01:00:11 CAT Hyères
14 1141 SAINT GERMAIN Sébastien M(13.) M2M(1.) 01:00:35 CAT Toulon
15 1001 ARHANT Julia F(2.) SeF(2.) 01:00:49 SCR Plobannalec Lesconil
16 1170 MONTOYA Raphaël M(14.) SeM(11.) 01:01:04 Nice Cote D'Azur Athletisme *
17 1069 COUDRE Sylvain M(15.) M3M(1.) 01:01:44 CAT Bandol
18 1153 ABBAOUI Rachid M(16.) M2M(2.) 01:02:01 Méounes Lès Montrieux
19 1056 MARAULT Jérémy M(17.) SeM(12.) 01:02:20 Toulon
20 1080 ANGOT Sébastien M(18.) M4M(1.) 01:02:23 CAT Bormes Les Mimosas
21 1138 GOURDY Michael M(19.) M0M(2.) 01:02:36 Villeurbanne
22 1180 RANUCCI Maxime M(20.) SeM(13.) 01:03:10 Toulon
23 1188 ALIX Pascal M(21.) M2M(3.) 01:03:24 La Garde
24 1162 GERVAIS David M(22.) M3M(2.) 01:03:30 Toulon Var Triathlon
25 1106 DUPORTE Maxime M(23.) M0M(3.) 01:04:23 Trail Athlitude Cuers
26 1035 MANNIER Quentin M(24.) SeM(14.) 01:04:40 S/L A Vallee Du Gapeau
27 1128 WINKLER Patrick M(25.) M1M(2.) 01:05:27 CAT Collobrières
28 1094 LECLERC Maxime M(26.) M0M(4.) 01:05:31 Ca Puget
29 1115 BOUIX Antoine M(27.) SeM(15.) 01:05:57 Le Pradet
30 1045 MUNIER Pierre M(28.) M0M(5.) 01:05:57 Toulon
31 1016 FERNANDEZ Marc M(29.) M4M(2.) 01:06:10 Hyères
32 1120 BOTEREL Logan M(30.) SeM(16.) 01:06:29 Pleyben
33 1008 LORINO Stephane M(31.) M0M(6.) 01:06:34 Valbonne
34 1132 STOREZ Pierrick M(32.) M1M(3.) 01:06:37 Solliès Pont
35 1070 PASQUINI Nicolas M(33.) SeM(17.) 01:06:42 Toulon
36 1091 ROCHARD Olivier M(34.) M5M(1.) 01:06:54 CAT Toulon
37 1169 DENIS Gregory M(35.) M0M(7.) 01:06:58 Csa-25Rga
38 1190 MIGNON Luc M(36.) M5M(2.) 01:07:02 Trail Club Ollioules
39 1098 VAREILLE Sébastien M(37.) M2M(4.) 01:07:32 Évenos
40 1085 CRUNCHANT Guillaume M(38.) SeM(18.) 01:07:49 Hyères
41 1076 MOQUET Céline F(3.) M2F(1.) 01:08:19 SCR S/L Toulon Ec
42 1184 JOLY Emmanuel M(39.) M3M(3.) 01:08:48 Trail Club Ollioules
43 1119 CARNIAUX Christophe M(40.) M3M(4.) 01:09:31 Ca Puget
44 1171 HELBLING Olivier M(41.) M0M(8.) 01:09:31 Hyères
45 1126 PAYAGE Jessica F(4.) EsF(1.) 01:09:40 CAT La Garde
46 1127 RODRIGUES Liza F(5.) SeF(3.) 01:09:42 CAT Hyères
47 1117 ZIMMERMANN Tom M(42.) JuM(1.) 01:09:51 CAT Vidauban
48 1163 ROUX Alexandre M(43.) SeM(19.) 01:09:56 Toulon
49 1122 BRUNEAU Théo M(44.) EsM(1.) 01:10:23 CAT Toulon
50 1150 BACHELOT Jean-Philippe M(45.) M2M(5.) 01:10:29 Ollioules
51 1164 PAPIRER Julien M(46.) M0M(9.) 01:10:54 Solliès Toucas
52 1123 LEMMELET Loïc M(47.) SeM(20.) 01:11:03 Hyères
53 1040 NGUYEN SIMON Shiki F(6.) SeF(4.) 01:11:11 Csa-25Rga
54 1131 GATTI Christophe M(48.) M4M(3.) 01:11:17 Kinetik
55 1111 RUTILY Dominique M(49.) M6M(1.) 01:11:22 CAT Trail Athlitude Cuers
56 1048 TASSISTO Jessica F(7.) M1F(1.) 01:11:32 CAT Ollioules
57 1182 ROUX Enzo M(50.) SeM(21.) 01:11:35 La Crau
58 1152 PARAIN Sébastien M(51.) M2M(6.) 01:12:09 Trail Athlitude Cuers
59 1065 FERRY Michael M(52.) M2M(7.) 01:12:12 Toulon
60 1032 MACE Julien M(53.) M1M(4.) 01:12:26 La Seyne Sur Mer
61 1092 MUHMENTHALER Stefan M(54.) M5M(3.) 01:12:55 Bern (Suisse)
62 1191 BEAUJARDIN Léopold M(55.) JuM(2.) 01:13:07 La Valette Du Var
63 1097 FAUQUENOT Herve M(56.) M3M(5.) 01:13:09 Carqueiranne
64 1018 JAKYMIW Sylvain M(57.) M3M(6.) 01:13:13 Toulon
65 1096 GORJON Alexandre M(58.) SeM(22.) 01:13:23 U Sault Apt Luberon Ventoux
66 1143 LE GARREC Chloe F(8.) M0F(1.) 01:13:24 CAT Six Fours Les Plages
67 1059 POHLER Vladimir M(59.) M0M(10.) 01:13:41 La Valette Du Var
68 1061 DEGIORGIS Timothé M(60.) SeM(23.) 01:13:58 Toulon
69 1066 VALADOR Jean-Pierre M(61.) M5M(4.) 01:14:00 Le Revest Les Eaux
70 1009 GUILBERT Céline F(9.) SeF(5.) 01:14:17 Sarrians
71 1178 VERON Yoan M(62.) EsM(2.) 01:14:28 Solliès Toucas
72 1149 LANSIMAKI Julien M(63.) M2M(8.) 01:14:38 La Seyne Sur Mer
73 1114 GRAVE Olivier M(64.) M4M(4.) 01:14:45 Team Campus
74 1083 EFIMOVA Anisiia Renata F(10.) SeF(6.) 01:15:00 Toulon Var Triathlon
75 1166 FERRINI Alexandra F(11.) M2F(2.) 01:15:32 CAT Prepa&Phys
76 1013 BARET Pauline F(12.) M0F(2.) 01:15:34
77 1054 ARNOUX Gilles M(65.) M4M(5.) 01:15:39 Toulon
78 1086 TYSCHENKO Rouslan M(66.) SeM(24.) 01:15:48 Toulon
79 1034 MASSON Mathieu M(67.) SeM(25.) 01:15:50 Le Revest Les Eaux
80 1025 MOUQUET Raphaëlle F(13.) SeF(7.) 01:16:27 Toulon
81 1154 MORCEL Jocelyn M(68.) M0M(11.) 01:16:27 Toulon
82 1021 AYAD Mouley M(69.) M2M(9.) 01:16:30 Toulon
83 1072 CASTOR Christelle F(14.) SeF(8.) 01:17:46 Le Lavandou Bormes Athletisme
84 1071 SOUQUE Sébastien M(70.) M2M(10.) 01:17:46
85 1064 SASSATELLI Eric M(71.) M4M(6.) 01:17:55 Toulon
86 1139 GOURY Loïc M(72.) SeM(26.) 01:18:20 La Valette Du Var
87 1047 ROUSTAN François-René M(73.) M0M(12.) 01:18:24 Carqueiranne
88 1103 CORSIA Christophe M(74.) M4M(7.) 01:18:31 Trail Athlitude Cuers
89 1041 SALORT Elodie F(15.) SeF(9.) 01:18:42 Toulon
90 1155 LANGLOIS Clémence F(16.) SeF(10.) 01:18:55 Toulon
91 1022 SXAY Benoit M(75.) M0M(13.) 01:19:09 Courir A Bouc Bel Air
92 1118 SUCHAIL Carine F(17.) M2F(3.) 01:19:15 Vidauban
93 1168 BONNAN Christophe M(76.) M3M(7.) 01:19:25 Le Cannet Des Maures
94 1136 DORNET Nicolas M(77.) M1M(5.) 01:19:26 Le Luc
95 1104 CROCHET Margot F(18.) SeF(11.) 01:19:26 Trail Athlitude Cuers
96 1174 ENDERLIN Emilie F(19.) SeF(12.) 01:19:59 Le Lavandou Bormes Athletisme
97 1173 BOLEVE Alice F(20.) SeF(13.) 01:19:59
98 1175 RODRIGUES Sophie F(21.) EsF(2.) 01:20:14 S/L Esperance Antibes
99 1099 VAREILLE Laurence F(22.) M2F(4.) 01:20:20 Évenos
100 1148 ALOS Alexandre M(78.) SeM(27.) 01:21:29 Solliès Pont
101 1147 DI SCALA Olivier M(79.) M2M(11.) 01:21:38 Cuers
102 1151 LOUIS Christophe M(80.) M1M(6.) 01:21:38 Trail Athlitude Cuers
103 1057 ROCROU Kelly F(23.) M1F(2.) 01:22:00 Toulon
104 1121 TORRENT Marc M(81.) SeM(28.) 01:22:04 Nice
105 1124 ALOS David M(82.) M0M(14.) 01:22:10 Le Luc
106 1116 CHELLI Haroun M(83.) M4M(8.) 01:22:27 La Crau
107 1046 TEISSERENC Antoine M(84.) M0M(15.) 01:22:31 Toulon
108 1026 SEVE Stéphane M(85.) M3M(8.) 01:22:54 Cuers
109 1160 BACQUET Fleur F(24.) EsF(3.) 01:23:03 Tri-Academy Squad
110 1002 CAVE Macéo M(86.) EsM(3.) 01:23:04 La Foulee Tourvaine
111 1051 NOURY Madenn F(25.) SeF(14.) 01:23:05 Paris
112 1053 LE GOASTER Marie F(26.) SeF(15.) 01:23:20 Toulon
113 1082 CHASSAGNARD Romain M(87.) M0M(16.) 01:23:41 Le Thoronet
114 1129 ALCARAZ Jean Yves M(88.) M3M(9.) 01:23:54 Toulon
115 1079 PERROT Richard M(89.) M3M(10.) 01:24:07 Toulon
116 1027 BLANCHON Marion F(27.) SeF(16.) 01:24:11 Marseille
117 1161 OISON Corentin M(90.) SeM(29.) 01:24:19 Toulon
118 1068 RIVETTI Denis M(91.) M4M(9.) 01:24:21 Rocbaron
119 1177 BESTIEU Aurelie F(28.) M1F(3.) 01:24:26 La Valette Du Var
120 1181 DEPHIX Olivier M(92.) M2M(12.) 01:24:26 Hôpital Ste Anne
121 1075 GAILLARD Vanessa F(29.) M0F(3.) 01:24:30 Bormes Les Mimosas
122 1033 FRONTON Jean-Sebastien M(93.) M2M(13.) 01:24:57 La Seyne Sur Mer
123 1067 RINUIT Frédéric M(94.) M4M(10.) 01:24:58 Aix En Provence
124 1090 LORENZANI Laura F(30.) SeF(17.) 01:25:38 Toulon
125 1084 MANCHON Laurent M(95.) M4M(11.) 01:26:15 Toulon
126 1037 HUGUES Manon F(31.) SeF(18.) 01:26:31 Toulon
127 1093 DEVAURE Melanie F(32.) M1F(4.) 01:26:31 Ca Puget
128 1142 ALBERT Melissa F(33.) M0F(4.) 01:27:24 S/L Asptt Toulon La Valette
129 1019 COWEZ Sandra F(34.) M2F(5.) 01:28:23 Toulon
130 1130 GRENOUILLOUX Maryse F(35.) M0F(5.) 01:28:23 Toulon
131 1014 MOLBERT Elise F(36.) SeF(19.) 01:28:25 La Valette Du Var
132 1038 ROUX Sylvie F(37.) M2F(6.) 01:28:57 Cagnes Sur Mer
133 1052 CID Sebastien M(96.) M0M(17.) 01:29:26 La Buisse
134 1108 MAGNIER Claire F(38.) M0F(6.) 01:29:47 Trail Athlitude Cuers
135 1060 NOIREAUX Patrick M(97.) M2M(14.) 01:29:51 Toulon
136 1189 DESFONS Julie F(39.) SeF(20.) 01:30:17
137 1015 HUET Lucile F(40.) SeF(21.) 01:30:44 Toulon
138 1110 MOSSER Laetitia F(41.) M3F(1.) 01:31:44 CAT Trail Athlitude Cuers
139 1158 BOUDON Anne-Sophie F(42.) SeF(22.) 01:31:56 Solliès Toucas
140 1089 HOAREAU David M(98.) M1M(7.) 01:31:58 Ca Puget
141 1043 PISCHE Gérard M(99.) M1M(8.) 01:32:16 Toulon
142 1078 PRENIERE Hugues M(100.) M3M(11.) 01:32:35 Toulon
143 1167 LATHUILLIERE Jean-Marie M(101.) M3M(12.) 01:32:57 Le Castellet
144 1005 JAMBET Jean Christophe M(102.) M2M(15.) 01:33:55 Marseille
145 1007 JAMBET ANNIBAL Alice F(43.) M1F(5.) 01:34:02 Marseille
146 1145 MADIE Daniel M(103.) M6M(2.) 01:34:53 Toulon
147 1187 VERGNAUD Florence F(44.) M2F(7.) 01:35:12 La Valette Du Var
148 1186 BASILE John M(104.) M3M(13.) 01:35:12 La Valette Du Var
149 1101 LETOMBE Carine F(45.) SeF(23.) 01:35:15 Toulon
150 1112 UZAN Didier M(105.) M4M(12.) 01:35:20 Trail Athlitude Cuers
151 1010 LETORT Axelle F(46.) SeF(24.) 01:35:38 La Ciotat
152 1109 MILOT Michel M(106.) M6M(3.) 01:36:19 Trail Athlitude Cuers
153 1140 CHAUMETTE Stéphane M(107.) M3M(14.) 01:36:36 Six Fours Les Plages
154 1144 JOUANOT Gregory M(108.) M1M(9.) 01:36:48 Saint Marcellin
155 1036 LOGELLO Sophie F(47.) M1F(6.) 01:37:36 La Seyne Sur Mer
156 1156 BOUDON Romuald M(109.) M1M(10.) 01:39:59 Toulon
157 2037 BARTHOLOMEI Mathieu M(110.) M0M(18.) 01:41:06 Six Fours Les Plages
158 1062 LANGLAIS Christelle F(48.) M0F(7.) 01:41:24 La Seyne Sur Mer
159 1039 LACABANNE Isabelle F(49.) M2F(8.) 01:42:09 Saint Mandrier Sur Mer
160 1012 BERRIOT Mathilde F(50.) SeF(25.) 01:42:29 La Ciotat
161 1042 MULLER Christophe M(111.) M5M(5.) 01:42:37 Pertuis
162 1159 BARREAU Julie F(51.) M1F(7.) 01:43:07 Toulon
163 1157 MOLINAS Heloise F(52.) M1F(8.) 01:43:08 Toulon
164 1105 DESERTENNE Sophie F(53.) M2F(9.) 01:45:37 Trail Athlitude Cuers
165 1087 DALIGAULT Earine F(54.) SeF(26.) 01:46:09 Toulon
166 1133 VIGNEAU Laurie-Anne F(55.) M2F(10.) 01:46:57 Six Fours Les Plages
167 1134 COUPIN Estelle F(56.) M2F(11.) 01:46:57 Six Fours Les Plages
168 1020 CIOFFI Natalia F(57.) SeF(27.) 01:48:38 Six Fours Les Plages
169 1031 KHOURY Sherine F(58.) M1F(9.) 01:49:53 Team Bertagne
170 1029 LE GUILLERM Florence F(59.) M1F(10.) 01:49:54 Saint Cyr Sur Mer
171 1028 FITENI Aurelien M(112.) M1M(11.) 01:49:54 Saint Cyr Sur Mer
172 1030 BLANC Frederic M(113.) M3M(15.) 01:49:55 Team Bertagne
173 1102 BOUTIER Sandrine F(60.) M4F(1.) 01:50:18 CAT Trail Athlitude Cuers
174 1050 PABION Chrystel F(61.) M3F(2.) 01:52:18 La Seyne Sur Mer
175 1049 PABION Caroline F(62.) M3F(3.) 01:52:18 Ollioules
176 1055 BERL Maïté F(63.) M0F(8.) 01:56:04 Toulon
DNS/DNF 1137 ALLARD Alexandre -- -- Abandon Csa-25Rga
DNS/DNF 1003 IRVOAS Clément -- -- Non partant La Garde
DNS/DNF 1004 OLIVE - ABERGEL Sophie -- -- Non partant Toulon
DNS/DNF 1011 SEVERE Mathilde -- -- Non partant La Ciotat
DNS/DNF 1023 DUBOIS Thierry -- -- Non partant Warmeriville Sport Endurance
DNS/DNF 1024 DUBOIS Stephanie -- -- Non partant Warmeriville Sport Endurance
DNS/DNF 1044 BENADIBA Steeve -- -- Non partant Toulon
DNS/DNF 1063 GIL Eric -- -- Non partant Cuers
DNS/DNF 1095 ALBERTINI Nicolas -- -- Non partant Toulon
DNS/DNF 1107 GESSET Xavier -- -- Non partant Trail Athlitude Cuers
DNS/DNF 1165 GAUCHERAND Alexandra -- -- Non partant Paris
DNS/DNF 1172 BILLON François -- -- Non partant Saint Denis
DNS/DNF 1183 PECQUEUX Laure -- -- Non partant Cap Garonne*